createdAt,value
2019-05-26T00:02:19.194Z,95348.92
2019-05-26T00:04:49.231Z,95343.99
2019-05-26T00:07:30.172Z,95346.63
2019-05-26T00:09:51.650Z,95343.17
2019-05-26T00:12:22.131Z,95340.08
2019-05-26T00:14:52.121Z,95334.02
2019-05-26T00:17:22.145Z,95334.84
2019-05-26T00:19:52.137Z,95337.78
2019-05-26T00:22:22.119Z,95337.30
2019-05-26T00:24:52.139Z,95331.88
2019-05-26T00:27:22.207Z,95325.78
2019-05-26T00:29:52.186Z,95325.78
2019-05-26T00:32:22.274Z,95323.34
2019-05-26T00:34:52.318Z,95323.19
2019-05-26T00:37:22.409Z,95316.12
2019-05-26T00:39:52.464Z,95318.75
2019-05-26T00:42:22.474Z,95309.23
2019-05-26T00:44:52.459Z,95312.20
2019-05-26T00:47:22.505Z,95312.54
2019-05-26T00:49:52.652Z,95316.15
2019-05-26T00:52:22.659Z,95308.59
2019-05-26T00:54:52.638Z,95305.98
2019-05-26T00:57:22.654Z,95307.45
2019-05-26T00:59:52.635Z,95300.23
2019-05-26T01:02:22.581Z,95302.87
2019-05-26T01:04:52.625Z,95306.94
2019-05-26T01:07:22.707Z,95303.81
2019-05-26T01:09:52.683Z,95309.56
2019-05-26T01:12:22.761Z,95308.74
2019-05-26T01:14:52.670Z,95312.05
2019-05-26T01:17:22.687Z,95310.21
2019-05-26T01:19:52.698Z,95309.91
2019-05-26T01:22:22.680Z,95305.80
2019-05-26T01:24:52.679Z,95305.95
2019-05-26T01:27:22.601Z,95302.38
2019-05-26T01:29:52.682Z,95305.98
2019-05-26T01:32:22.662Z,95310.42
2019-05-26T01:34:52.677Z,95312.38
2019-05-26T01:37:22.858Z,95315.53
2019-05-26T01:39:52.947Z,95311.09
2019-05-26T01:42:22.914Z,95313.88
2019-05-26T01:44:52.926Z,95308.77
2019-05-26T01:47:22.898Z,95308.95
2019-05-26T01:49:52.909Z,95309.78
2019-05-26T01:52:22.887Z,95308.80
2019-05-26T01:54:52.901Z,95307.13
2019-05-26T01:57:22.874Z,95304.34
2019-05-26T01:59:52.886Z,95310.27
2019-05-26T02:02:22.929Z,95308.47
2019-05-26T02:04:52.866Z,95307.80
2019-05-26T02:07:22.910Z,95309.94
2019-05-26T02:09:52.926Z,95313.05
2019-05-26T02:12:22.907Z,95317.19
2019-05-26T02:14:52.918Z,95307.98
2019-05-26T02:17:22.905Z,95309.44
2019-05-26T02:19:52.923Z,95309.14
2019-05-26T02:22:22.901Z,95317.64
2019-05-26T02:24:52.990Z,95313.87
2019-05-26T02:27:22.890Z,95316.02
2019-05-26T02:29:52.899Z,95313.05
2019-05-26T02:32:22.809Z,95314.85
2019-05-26T02:34:52.797Z,95314.52
2019-05-26T02:37:22.820Z,95313.69
2019-05-26T02:39:52.809Z,95310.57
2019-05-26T02:42:22.792Z,95311.89
2019-05-26T02:44:52.766Z,95306.96
2019-05-26T02:47:22.795Z,95311.40
2019-05-26T02:49:52.774Z,95307.94
2019-05-26T02:52:22.823Z,95306.32
2019-05-26T02:54:52.803Z,95309.10
2019-05-26T02:57:22.788Z,95309.28
2019-05-26T02:59:52.910Z,95312.41
2019-05-26T03:02:23.548Z,95309.93
2019-05-26T03:04:53.560Z,95307.97
2019-05-26T03:07:26.031Z,95305.83
2019-05-26T03:09:57.939Z,95307.14
2019-05-26T03:12:30.581Z,95308.80
2019-05-26T03:15:03.318Z,95306.66
2019-05-26T03:17:34.520Z,95306.98
2019-05-26T03:20:05.806Z,95308.64
2019-05-26T03:22:38.692Z,95301.55
2019-05-26T03:25:09.599Z,95305.00
2019-05-26T03:27:40.353Z,95304.51
2019-05-26T03:30:12.431Z,95305.19
2019-05-26T03:32:42.370Z,95307.48
2019-05-26T03:35:12.861Z,95303.38
2019-05-26T03:37:42.970Z,95305.18
2019-05-26T03:40:13.130Z,95305.52
2019-05-26T03:42:43.104Z,95312.92
2019-05-26T03:45:21.892Z,95310.95
2019-05-26T03:47:51.805Z,95314.23
2019-05-26T03:50:21.803Z,95309.98
2019-05-26T03:52:51.789Z,95312.61
2019-05-26T03:55:21.805Z,95308.32
2019-05-26T03:57:51.767Z,95312.27
2019-05-26T04:00:21.801Z,95313.41
2019-05-26T04:02:51.868Z,95316.55
2019-05-26T04:05:21.852Z,95319.52
2019-05-26T04:07:51.830Z,95318.20
2019-05-26T04:10:21.839Z,95321.14
2019-05-26T04:12:51.818Z,95318.36
2019-05-26T04:15:21.822Z,95324.23
2019-05-26T04:17:51.800Z,95331.00
2019-05-26T04:20:21.777Z,95330.02
2019-05-26T04:22:51.782Z,95336.59
2019-05-26T04:25:21.770Z,95335.75
2019-05-26T04:27:51.801Z,95330.02
2019-05-26T04:30:21.901Z,95331.16
2019-05-26T04:32:52.121Z,95329.16
2019-05-26T04:35:22.122Z,95327.70
2019-05-26T04:37:52.026Z,95331.95
2019-05-26T04:40:27.059Z,95334.44
2019-05-26T04:42:53.701Z,95331.95
2019-05-26T04:45:23.711Z,95329.66
2019-05-26T04:47:53.623Z,95335.75
2019-05-26T04:50:23.625Z,95331.80
2019-05-26T04:53:06.107Z,95333.61
2019-05-26T04:55:25.359Z,95329.33
2019-05-26T04:57:55.340Z,95331.31
2019-05-26T05:00:25.348Z,95332.48
2019-05-26T05:02:55.245Z,95336.25
2019-05-26T05:05:25.255Z,95338.88
2019-05-26T05:07:56.355Z,95338.20
2019-05-26T05:10:41.367Z,95337.88
2019-05-26T05:12:59.267Z,95343.78
2019-05-26T05:15:29.273Z,95345.73
2019-05-26T05:17:59.751Z,95342.95
2019-05-26T05:20:29.758Z,95344.42
2019-05-26T05:22:59.694Z,95346.72
2019-05-26T05:25:29.739Z,95343.91
2019-05-26T05:27:59.819Z,95340.45
2019-05-26T05:30:29.797Z,95346.84
2019-05-26T05:32:59.769Z,95349.97
2019-05-26T05:35:29.776Z,95350.13
2019-05-26T05:37:59.676Z,95358.36
2019-05-26T05:40:29.697Z,95359.00
2019-05-26T05:42:59.661Z,95356.18
2019-05-26T05:45:30.586Z,95357.19
2019-05-26T05:48:00.498Z,95362.27
2019-05-26T05:50:30.503Z,95359.80
2019-05-26T05:53:00.475Z,95352.23
2019-05-26T05:55:30.412Z,95359.76
2019-05-26T05:58:00.379Z,95353.81
2019-05-26T06:00:30.458Z,95354.79
2019-05-26T06:03:00.442Z,95350.65
2019-05-26T06:05:30.449Z,95357.05
2019-05-26T06:08:01.406Z,95360.63
2019-05-26T06:10:31.338Z,95358.28
2019-05-26T06:13:01.303Z,95363.20
2019-05-26T06:15:31.375Z,95362.00
2019-05-26T06:18:01.415Z,95367.91
2019-05-26T06:20:31.427Z,95363.07
2019-05-26T06:23:01.394Z,95365.88
2019-05-26T06:25:31.338Z,95364.66
2019-05-26T06:28:01.485Z,95367.28
2019-05-26T06:30:31.859Z,95368.70
2019-05-26T06:33:01.722Z,95369.34
2019-05-26T06:35:32.868Z,95366.15
2019-05-26T06:38:03.393Z,95366.63
2019-05-26T06:40:33.295Z,95361.14
2019-05-26T06:43:03.302Z,95361.73
2019-05-26T06:45:33.304Z,95365.61
2019-05-26T06:48:03.380Z,95372.00
2019-05-26T06:50:33.377Z,95369.63
2019-05-26T06:53:03.286Z,95370.39
2019-05-26T06:55:33.259Z,95370.34
2019-05-26T06:58:03.273Z,95369.30
2019-05-26T07:00:33.330Z,95374.50
2019-05-26T07:03:03.359Z,95374.00
2019-05-26T07:05:33.421Z,95366.00
2019-05-26T07:08:03.502Z,95375.88
2019-05-26T07:10:33.472Z,95375.33
2019-05-26T07:13:03.544Z,95379.20
2019-05-26T07:15:33.514Z,95379.58
2019-05-26T07:18:03.516Z,95378.75
2019-05-26T07:20:33.491Z,95376.05
2019-05-26T07:23:03.838Z,95383.18
2019-05-26T07:25:34.394Z,95383.36
2019-05-26T07:28:04.519Z,95383.72
2019-05-26T07:30:34.546Z,95390.66
2019-05-26T07:33:05.063Z,95395.71
2019-05-26T07:35:35.210Z,95400.13
2019-05-26T07:38:05.218Z,95401.85
2019-05-26T07:40:35.282Z,95401.23
2019-05-26T07:43:05.288Z,95399.30
2019-05-26T07:45:35.336Z,95394.81
2019-05-26T07:48:05.455Z,95389.75
2019-05-26T07:50:35.423Z,95395.38
2019-05-26T07:53:05.497Z,95393.45
2019-05-26T07:55:35.571Z,95386.42
2019-05-26T07:58:05.647Z,95392.47
2019-05-26T08:00:35.733Z,95388.67
2019-05-26T08:03:05.774Z,95391.16
2019-05-26T08:05:35.785Z,95388.30
2019-05-26T08:08:12.715Z,95394.74
2019-05-26T08:10:37.466Z,95393.42
2019-05-26T08:13:07.510Z,95396.61
2019-05-26T08:15:37.522Z,95395.61
2019-05-26T08:18:07.557Z,95391.31
2019-05-26T08:20:37.559Z,95393.67
2019-05-26T08:23:07.527Z,95382.44
2019-05-26T08:25:37.456Z,95384.91
2019-05-26T08:28:07.388Z,95379.38
2019-05-26T08:30:37.366Z,95379.05
2019-05-26T08:33:07.373Z,95381.31
2019-05-26T08:35:37.421Z,95375.69
2019-05-26T08:38:07.507Z,95376.21
2019-05-26T08:40:37.481Z,95367.23
2019-05-26T08:43:07.557Z,95370.70
2019-05-26T08:45:37.529Z,95374.35
2019-05-26T08:48:07.544Z,95368.62
2019-05-26T08:50:37.523Z,95376.98
2019-05-26T08:53:07.603Z,95373.00
2019-05-26T08:55:37.584Z,95370.68
2019-05-26T08:58:07.593Z,95368.27
2019-05-26T09:00:37.663Z,95365.14
2019-05-26T09:03:07.741Z,95360.17
2019-05-26T09:05:37.714Z,95361.34
2019-05-26T09:08:08.359Z,95363.55
2019-05-26T09:10:38.976Z,95363.05
2019-05-26T09:13:08.997Z,95362.90
2019-05-26T09:15:38.882Z,95354.58
2019-05-26T09:18:08.964Z,95361.16
2019-05-26T09:20:38.934Z,95354.53
2019-05-26T09:23:08.972Z,95351.75
2019-05-26T09:25:38.951Z,95356.27
2019-05-26T09:28:08.954Z,95349.60
2019-05-26T09:30:38.924Z,95349.63
2019-05-26T09:33:09.065Z,95348.52
2019-05-26T09:35:39.088Z,95345.56
2019-05-26T09:38:10.178Z,95342.70
2019-05-26T09:40:40.227Z,95341.75
2019-05-26T09:43:16.150Z,95341.31
2019-05-26T09:45:42.116Z,95330.92
2019-05-26T09:48:12.190Z,95330.10
2019-05-26T09:50:42.275Z,95331.02
2019-05-26T09:53:12.945Z,95332.44
2019-05-26T09:55:42.920Z,95335.70
2019-05-26T09:58:13.007Z,95329.98
2019-05-26T10:00:44.748Z,95328.77
2019-05-26T10:03:14.751Z,95330.61
2019-05-26T10:05:44.669Z,95328.23
2019-05-26T10:08:14.819Z,95326.38
2019-05-26T10:10:44.866Z,95322.50
2019-05-26T10:13:29.112Z,95329.77
2019-05-26T10:15:46.535Z,95325.70
2019-05-26T10:18:16.579Z,95324.69
2019-05-26T10:20:46.588Z,95326.52
2019-05-26T10:23:16.713Z,95330.29
2019-05-26T10:25:46.618Z,95327.63
2019-05-26T10:28:16.619Z,95317.99
2019-05-26T10:30:46.637Z,95325.94
2019-05-26T10:33:16.620Z,95324.98
2019-05-26T10:35:46.628Z,95319.25
2019-05-26T10:38:16.605Z,95310.62
2019-05-26T10:40:46.693Z,95315.84
2019-05-26T10:43:16.751Z,95316.98
2019-05-26T10:45:46.762Z,95315.81
2019-05-26T10:48:16.735Z,95319.16
2019-05-26T10:50:46.713Z,95313.22
2019-05-26T10:53:16.725Z,95314.05
2019-05-26T10:55:46.810Z,95307.91
2019-05-26T10:58:16.726Z,95307.16
2019-05-26T11:00:46.725Z,95306.25
2019-05-26T11:03:16.767Z,95299.75
2019-05-26T11:05:46.856Z,95304.38
2019-05-26T11:08:16.771Z,95308.26
2019-05-26T11:10:46.772Z,95309.34
2019-05-26T11:13:16.769Z,95308.52
2019-05-26T11:15:46.772Z,95304.75
2019-05-26T11:18:16.750Z,95305.68
2019-05-26T11:20:47.763Z,95304.67
2019-05-26T11:23:17.730Z,95299.30
2019-05-26T11:25:47.811Z,95292.15
2019-05-26T11:28:17.862Z,95291.48
2019-05-26T11:30:48.004Z,95284.51
2019-05-26T11:33:18.010Z,95283.43
2019-05-26T11:35:47.981Z,95284.78
2019-05-26T11:38:18.005Z,95272.69
2019-05-26T11:40:49.082Z,95266.51
2019-05-26T11:43:19.133Z,95276.13
2019-05-26T11:45:49.047Z,95269.25
2019-05-26T11:48:19.134Z,95266.53
2019-05-26T11:50:49.103Z,95265.84
2019-05-26T11:53:19.268Z,95261.63
2019-05-26T11:55:49.386Z,95264.34
2019-05-26T11:58:19.339Z,95264.68
2019-05-26T12:00:49.380Z,95267.59
2019-05-26T12:03:19.394Z,95267.73
2019-05-26T12:05:49.465Z,95264.66
2019-05-26T12:08:19.453Z,95260.08
2019-05-26T12:10:49.494Z,95256.70
2019-05-26T12:13:19.588Z,95253.64
2019-05-26T12:15:49.725Z,95248.53
2019-05-26T12:18:19.740Z,95247.13
2019-05-26T12:20:49.842Z,95244.05
2019-05-26T12:23:19.977Z,95239.09
2019-05-26T12:25:49.954Z,95243.41
2019-05-26T12:28:20.035Z,95235.55
2019-05-26T12:30:50.099Z,95231.42
2019-05-26T12:33:20.123Z,95228.23
2019-05-26T12:35:50.172Z,95223.18
2019-05-26T12:38:20.175Z,95223.53
2019-05-26T12:40:50.183Z,95223.39
2019-05-26T12:43:20.293Z,95217.05
2019-05-26T12:45:50.438Z,95218.44
2019-05-26T12:48:21.492Z,95210.45
2019-05-26T12:50:51.561Z,95209.45
2019-05-26T12:53:21.537Z,95211.45
2019-05-26T12:55:51.574Z,95206.44
2019-05-26T12:58:21.492Z,95205.42
2019-05-26T13:00:54.831Z,95210.86
2019-05-26T13:03:23.136Z,95205.13
2019-05-26T13:05:53.216Z,95201.50
2019-05-26T13:08:23.220Z,95197.67
2019-05-26T13:10:53.209Z,95195.91
2019-05-26T13:13:23.175Z,95186.84
2019-05-26T13:15:53.245Z,95191.33
2019-05-26T13:18:23.239Z,95192.69
2019-05-26T13:20:53.335Z,95183.20
2019-05-26T13:23:23.383Z,95184.16
2019-05-26T13:25:53.393Z,95183.72
2019-05-26T13:28:23.366Z,95181.64
2019-05-26T13:30:53.403Z,95182.98
2019-05-26T13:33:25.359Z,95184.55
2019-05-26T13:35:55.365Z,95181.59
2019-05-26T13:38:26.410Z,95179.79
2019-05-26T13:40:56.355Z,95171.52
2019-05-26T13:43:26.259Z,95174.34
2019-05-26T13:45:56.274Z,95176.92
2019-05-26T13:48:26.249Z,95177.72
2019-05-26T13:50:56.256Z,95167.06
2019-05-26T13:53:26.290Z,95162.33
2019-05-26T13:55:56.306Z,95160.15
2019-05-26T13:58:26.379Z,95156.23
2019-05-26T14:00:56.446Z,95156.71
2019-05-26T14:03:26.582Z,95158.45
2019-05-26T14:05:56.591Z,95165.73
2019-05-26T14:08:26.648Z,95163.72
2019-05-26T14:10:56.950Z,95163.72
2019-05-26T14:13:26.930Z,95160.67
2019-05-26T14:15:58.217Z,95156.62
2019-05-26T14:18:30.954Z,95154.92
2019-05-26T14:21:01.057Z,95163.11
2019-05-26T14:23:31.726Z,95166.89
2019-05-26T14:26:02.565Z,95163.96
2019-05-26T14:28:32.569Z,95156.13
2019-05-26T14:31:02.546Z,95159.03
2019-05-26T14:33:32.631Z,95164.44
2019-05-26T14:36:02.681Z,95164.22
2019-05-26T14:38:42.748Z,95156.64
2019-05-26T14:41:04.364Z,95156.73
2019-05-26T14:43:34.329Z,95153.77
2019-05-26T14:46:04.289Z,95160.08
2019-05-26T14:48:34.290Z,95154.12
2019-05-26T14:51:04.364Z,95158.89
2019-05-26T14:53:34.372Z,95155.13
2019-05-26T14:56:04.342Z,95156.67
2019-05-26T14:58:34.357Z,95157.70
2019-05-26T15:01:04.452Z,95151.99
2019-05-26T15:03:34.432Z,95146.52
2019-05-26T15:06:06.216Z,95152.50
2019-05-26T15:08:36.111Z,95140.30
2019-05-26T15:11:06.080Z,95143.79
2019-05-26T15:13:36.084Z,95142.08
2019-05-26T15:16:10.241Z,95146.90
2019-05-26T15:18:37.890Z,95144.91
2019-05-26T15:21:07.992Z,95146.43
2019-05-26T15:23:38.043Z,95145.92
2019-05-26T15:26:08.018Z,95143.25
2019-05-26T15:28:38.024Z,95147.77
2019-05-26T15:31:10.058Z,95140.38
2019-05-26T15:33:39.631Z,95139.18
2019-05-26T15:36:09.604Z,95139.31
2019-05-26T15:38:43.125Z,95135.55
2019-05-26T15:41:11.271Z,95137.73
2019-05-26T15:43:41.248Z,95135.27
2019-05-26T15:46:24.261Z,95122.37
2019-05-26T15:48:42.848Z,95120.36
2019-05-26T15:51:12.818Z,95124.42
2019-05-26T15:53:42.818Z,95126.51
2019-05-26T15:56:12.791Z,95124.61
2019-05-26T15:58:42.805Z,95123.33
2019-05-26T16:01:12.841Z,95118.31
2019-05-26T16:03:42.843Z,95121.23
2019-05-26T16:06:12.809Z,95115.95
2019-05-26T16:08:42.818Z,95123.44
2019-05-26T16:11:12.781Z,95127.81
2019-05-26T16:13:42.858Z,95126.75
2019-05-26T16:16:12.852Z,95122.31
2019-05-26T16:18:42.967Z,95117.03
2019-05-26T16:21:27.054Z,95116.71
2019-05-26T16:23:44.928Z,95116.90
2019-05-26T16:26:15.000Z,95110.47
2019-05-26T16:28:44.996Z,95107.71
2019-05-26T16:31:15.037Z,95103.70
2019-05-26T16:33:45.045Z,95100.67
2019-05-26T16:36:15.014Z,95107.41
2019-05-26T16:38:45.684Z,95106.00
2019-05-26T16:41:15.663Z,95101.59
2019-05-26T16:43:45.667Z,95101.47
2019-05-26T16:46:15.709Z,95095.09
2019-05-26T16:48:45.714Z,95092.59
2019-05-26T16:51:15.689Z,95094.13
2019-05-26T16:53:45.698Z,95090.23
2019-05-26T16:56:15.737Z,95089.61
2019-05-26T16:58:45.672Z,95090.30
2019-05-26T17:01:15.640Z,95088.02
2019-05-26T17:03:45.648Z,95085.59
2019-05-26T17:06:15.614Z,95084.09
2019-05-26T17:08:45.624Z,95079.89
2019-05-26T17:11:15.594Z,95083.06
2019-05-26T17:13:45.604Z,95083.27
2019-05-26T17:16:15.645Z,95081.03
2019-05-26T17:18:45.685Z,95074.38
2019-05-26T17:21:15.634Z,95074.64
2019-05-26T17:23:45.581Z,95068.84
2019-05-26T17:26:15.624Z,95065.09
2019-05-26T17:28:45.566Z,95068.34
2019-05-26T17:31:16.635Z,95065.91
2019-05-26T17:33:46.646Z,95064.61
2019-05-26T17:36:16.633Z,95059.78
2019-05-26T17:38:46.639Z,95057.55
2019-05-26T17:41:16.610Z,95054.65
2019-05-26T17:43:46.622Z,95062.05
2019-05-26T17:46:16.662Z,95057.44
2019-05-26T17:48:46.673Z,95060.67
2019-05-26T17:51:17.709Z,95059.89
2019-05-26T17:53:47.784Z,95055.89
2019-05-26T17:56:17.764Z,95060.14
2019-05-26T17:58:48.809Z,95064.08
2019-05-26T18:01:18.850Z,95057.41
2019-05-26T18:03:48.923Z,95056.32
2019-05-26T18:06:18.937Z,95060.22
2019-05-26T18:08:48.991Z,95056.98
2019-05-26T18:11:18.993Z,95053.06
2019-05-26T18:13:48.966Z,95058.00
2019-05-26T18:16:19.144Z,95056.05
2019-05-26T18:18:49.067Z,95058.32
2019-05-26T18:21:19.079Z,95052.09
2019-05-26T18:23:48.978Z,95051.26
2019-05-26T18:26:18.927Z,95048.63
2019-05-26T18:28:48.971Z,95055.52
2019-05-26T18:31:19.007Z,95047.23
2019-05-26T18:33:48.979Z,95050.70
2019-05-26T18:36:18.988Z,95054.85
2019-05-26T18:38:49.029Z,95053.40
2019-05-26T18:41:18.962Z,95061.02
2019-05-26T18:43:48.949Z,95054.95
2019-05-26T18:46:18.962Z,95056.92
2019-05-26T18:48:49.003Z,95053.17
2019-05-26T18:51:19.010Z,95061.89
2019-05-26T18:53:49.066Z,95053.42
2019-05-26T18:56:19.077Z,95057.42
2019-05-26T18:58:49.080Z,95053.23
2019-05-26T19:01:19.156Z,95059.55
2019-05-26T19:03:49.140Z,95052.52
2019-05-26T19:06:19.213Z,95057.92
2019-05-26T19:08:49.190Z,95060.45
2019-05-26T19:11:19.284Z,95061.67
2019-05-26T19:13:49.257Z,95059.22
2019-05-26T19:16:19.210Z,95058.47
2019-05-26T19:18:50.255Z,95061.45
2019-05-26T19:21:20.263Z,95061.23
2019-05-26T19:23:50.165Z,95058.77
2019-05-26T19:26:20.186Z,95062.91
2019-05-26T19:28:50.230Z,95065.23
2019-05-26T19:31:20.302Z,95070.51
2019-05-26T19:33:50.309Z,95069.14
2019-05-26T19:36:20.356Z,95069.13
2019-05-26T19:38:50.368Z,95068.97
2019-05-26T19:41:20.422Z,95073.09
2019-05-26T19:43:50.430Z,95067.78
2019-05-26T19:46:20.400Z,95064.59
2019-05-26T19:48:50.493Z,95066.20
2019-05-26T19:51:20.464Z,95062.92
2019-05-26T19:53:50.478Z,95059.51
2019-05-26T19:56:20.530Z,95058.55
2019-05-26T19:58:50.616Z,95061.27
2019-05-26T20:01:20.659Z,95059.39
2019-05-26T20:03:50.599Z,95060.47
2019-05-26T20:06:20.644Z,95061.44
2019-05-26T20:08:50.669Z,95062.56
2019-05-26T20:11:20.717Z,95057.25
2019-05-26T20:13:50.650Z,95054.78
2019-05-26T20:16:20.642Z,95058.05
2019-05-26T20:18:50.730Z,95057.43
2019-05-26T20:21:20.775Z,95054.22
2019-05-26T20:23:50.721Z,95062.01
2019-05-26T20:26:20.698Z,95058.80
2019-05-26T20:28:50.786Z,95055.33
2019-05-26T20:31:20.831Z,95049.72
2019-05-26T20:33:50.863Z,95051.12
2019-05-26T20:36:20.910Z,95049.55
2019-05-26T20:38:50.816Z,95054.25
2019-05-26T20:41:20.889Z,95060.27
2019-05-26T20:43:50.867Z,95059.22
2019-05-26T20:46:20.955Z,95057.44
2019-05-26T20:48:50.928Z,95063.78
2019-05-26T20:51:20.933Z,95062.00
2019-05-26T20:53:50.902Z,95060.75
2019-05-26T20:56:20.924Z,95056.34
2019-05-26T20:58:50.965Z,95060.03
2019-05-26T21:01:20.912Z,95065.88
2019-05-26T21:03:50.890Z,95068.41
2019-05-26T21:06:20.965Z,95073.91
2019-05-26T21:08:51.005Z,95066.89
2019-05-26T21:11:21.027Z,95064.29
2019-05-26T21:13:51.008Z,95064.35
2019-05-26T21:16:21.014Z,95067.84
2019-05-26T21:18:50.986Z,95068.89
2019-05-26T21:21:20.938Z,95059.53
2019-05-26T21:23:51.984Z,95063.05
2019-05-26T21:26:21.929Z,95062.25
2019-05-26T21:28:51.909Z,95063.66
2019-05-26T21:31:21.821Z,95059.96
2019-05-26T21:33:51.829Z,95064.95
2019-05-26T21:36:21.730Z,95073.02
2019-05-26T21:38:51.601Z,95067.14
2019-05-26T21:41:21.574Z,95067.53
2019-05-26T21:43:51.689Z,95061.47
2019-05-26T21:46:21.630Z,95060.70
2019-05-26T21:48:51.577Z,95055.09
2019-05-26T21:51:21.481Z,95062.50
2019-05-26T21:53:51.489Z,95056.27
2019-05-26T21:56:21.493Z,95053.99
2019-05-26T21:58:51.400Z,95053.06
2019-05-26T22:01:21.414Z,95058.98
2019-05-26T22:03:51.525Z,95060.68
2019-05-26T22:06:21.532Z,95052.80
2019-05-26T22:08:51.591Z,95059.44
2019-05-26T22:11:21.541Z,95051.84
2019-05-26T22:13:52.687Z,95048.22
2019-05-26T22:16:22.694Z,95043.92
2019-05-26T22:18:52.765Z,95046.50
2019-05-26T22:21:22.674Z,95043.38
2019-05-26T22:23:52.687Z,95044.41
2019-05-26T22:26:22.593Z,95039.83
2019-05-26T22:28:52.524Z,95044.30
2019-05-26T22:31:22.498Z,95041.03
2019-05-26T22:33:52.433Z,95041.38
2019-05-26T22:36:22.407Z,95044.06
2019-05-26T22:38:52.417Z,95043.78
2019-05-26T22:41:22.320Z,95037.55
2019-05-26T22:43:52.324Z,95030.98
2019-05-26T22:46:22.299Z,95028.05
2019-05-26T22:48:52.311Z,95027.23
2019-05-26T22:51:22.322Z,95026.59
2019-05-26T22:53:53.375Z,95024.47
2019-05-26T22:56:23.307Z,95016.41
2019-05-26T22:58:53.388Z,95018.59
2019-05-26T23:01:23.439Z,95015.16
2019-05-26T23:03:53.522Z,95012.57
2019-05-26T23:06:23.494Z,95011.25
2019-05-26T23:08:53.570Z,95010.48
2019-05-26T23:11:23.473Z,95005.52
2019-05-26T23:13:53.482Z,95008.15
2019-05-26T23:16:23.538Z,95003.08
2019-05-26T23:18:53.546Z,95002.74
2019-05-26T23:21:23.518Z,94998.80
2019-05-26T23:23:53.522Z,94999.30
2019-05-26T23:26:23.494Z,94996.22
2019-05-26T23:28:53.498Z,94988.19
2019-05-26T23:31:23.474Z,94992.97
2019-05-26T23:33:53.493Z,94989.86
2019-05-26T23:36:23.467Z,94991.86
2019-05-26T23:38:53.471Z,94989.72
2019-05-26T23:41:23.449Z,94996.97
2019-05-26T23:43:53.459Z,94996.66
2019-05-26T23:46:23.432Z,94993.06
2019-05-26T23:48:54.642Z,94995.85
2019-05-26T23:51:24.617Z,94994.92
2019-05-26T23:53:55.589Z,94991.31
2019-05-26T23:56:25.529Z,94989.66
2019-05-26T23:58:55.512Z,94983.92
